Time;durP1;ratioP1;P1;durP2;ratioP2;P2;SDS_P1;SDS_P2;PMS_P1;PMS_P2;Temp;Humidity;BMP_temperature;BMP_pressure;BME280_temperature;BME280_humidity;BME280_pressure;Samples;Min_cycle;Max_cycle;Signal;HPM_P1;HPM_P2
2023/03/25 00:00:39;;;;;;;0.40;0.40;;;;;;;;;;5007101;28;20321;-85
2023/03/25 00:03:08;;;;;;;0.60;0.60;;;;;;;;;;5012254;28;20281;-85
2023/03/25 00:05:51;;;;;;;0.57;0.57;;;;;;;;;;5007568;28;20663;-84
2023/03/25 00:08:25;;;;;;;1.48;0.63;;;;;;;;;;5011100;28;20641;-84
2023/03/25 00:14:22;;;;;;;;;;;;;;;;;;;;;
2023/03/25 00:16:53;;;;;;;0.52;0.50;;;;;;;;;;5007576;28;20581;-83
2023/03/25 00:19:44;;;;;;;0.50;0.50;;;;;;;;;;5013392;28;20318;-84
2023/03/25 00:22:24;;;;;;;0.47;0.47;;;;;;;;;;5009236;28;20294;-84
2023/03/25 00:28:13;;;;;;;0.73;0.73;;;;;;;;;;4992161;28;20204;-84
2023/03/25 00:30:53;;;;;;;0.68;0.68;;;;;;;;;;5005055;28;20203;-84
2023/03/25 00:33:49;;;;;;;0.75;0.63;;;;;;;;;;5013822;28;20667;-84
2023/03/25 00:36:52;;;;;;;;;;;;;;;;;;;;;
2023/03/25 00:39:43;;;;;;;0.70;0.70;;;;;;;;;;5007602;28;20210;-84
2023/03/25 00:42:43;;;;;;;0.98;0.60;;;;;;;;;;4960695;28;20207;-84
2023/03/25 00:48:26;;;;;;;0.90;0.70;;;;;;;;;;4971394;28;20214;-84
2023/03/25 00:50:53;;;;;;;1.90;0.70;;;;;;;;;;5030714;23;20188;-84
2023/03/25 00:53:21;;;;;;;0.50;0.50;;;;;;;;;;5053201;28;20722;-85
2023/03/25 00:55:48;;;;;;;0.70;0.70;;;;;;;;;;5030098;28;20771;-85
2023/03/25 00:58:15;;;;;;;0.68;0.68;;;;;;;;;;5033593;28;20298;-83
2023/03/25 01:00:47;;;;;;;0.70;0.60;;;;;;;;;;5033927;28;20695;-84
2023/03/25 01:03:14;;;;;;;0.50;0.50;;;;;;;;;;5033806;28;20222;-82
2023/03/25 01:05:42;;;;;;;1.00;0.80;;;;;;;;;;5033317;28;20250;-85
2023/03/25 01:08:10;;;;;;;3.78;0.73;;;;;;;;;;5033269;28;20237;-84
2023/03/25 01:10:38;;;;;;;0.70;0.70;;;;;;;;;;5021038;28;20730;-84
2023/03/25 01:13:05;;;;;;;0.52;0.52;;;;;;;;;;5014105;28;20234;-84
2023/03/25 01:15:33;;;;;;;0.60;0.55;;;;;;;;;;5013559;28;20313;-85
2023/03/25 01:18:01;;;;;;;0.25;0.25;;;;;;;;;;5022411;28;20210;-81
2023/03/25 01:20:29;;;;;;;0.60;0.60;;;;;;;;;;5032745;28;20210;-83
2023/03/25 01:22:56;;;;;;;0.65;0.50;;;;;;;;;;5033089;28;20194;-83
2023/03/25 01:25:24;;;;;;;0.73;0.73;;;;;;;;;;5033161;28;20246;-83
2023/03/25 01:27:51;;;;;;;0.73;0.70;;;;;;;;;;5033079;28;20208;-83
2023/03/25 01:30:19;;;;;;;0.52;0.52;;;;;;;;;;5032677;28;20559;-83
2023/03/25 01:32:46;;;;;;;0.40;0.40;;;;;;;;;;5033129;28;20657;-83
2023/03/25 01:35:16;;;;;;;0.95;0.50;;;;;;;;;;5032443;28;20236;-85
2023/03/25 01:37:45;;;;;;;0.50;0.50;;;;;;;;;;5032973;28;20203;-84
2023/03/25 01:40:19;;;;;;;0.63;0.50;;;;;;;;;;5032015;28;20225;-83
2023/03/25 01:42:46;;;;;;;0.47;0.47;;;;;;;;;;5032582;28;20214;-85
2023/03/25 01:45:24;;;;;;;1.10;0.52;;;;;;;;;;5032969;28;20741;-83
2023/03/25 01:48:01;;;;;;;0.68;0.68;;;;;;;;;;5033210;28;20194;-85
2023/03/25 01:50:31;;;;;;;0.47;0.47;;;;;;;;;;5032802;28;20650;-84
2023/03/25 01:53:02;;;;;;;0.50;0.50;;;;;;;;;;5032703;28;20590;-83
2023/03/25 01:55:32;;;;;;;0.40;0.40;;;;;;;;;;5032158;28;20285;-83
2023/03/25 01:58:00;;;;;;;1.48;0.82;;;;;;;;;;5032481;28;20217;-83
2023/03/25 02:00:28;;;;;;;0.73;0.70;;;;;;;;;;5032943;28;20202;-84
2023/03/25 02:02:58;;;;;;;0.57;0.57;;;;;;;;;;5032746;28;20294;-83
2023/03/25 02:05:34;;;;;;;0.73;0.73;;;;;;;;;;5032384;28;20245;-84
2023/03/25 02:08:04;;;;;;;0.90;0.70;;;;;;;;;;5032876;28;20598;-83
2023/03/25 02:10:33;;;;;;;0.60;0.60;;;;;;;;;;5032295;28;20210;-84
2023/03/25 02:13:01;;;;;;;0.40;0.40;;;;;;;;;;5032941;28;20206;-85
2023/03/25 02:15:31;;;;;;;0.73;0.60;;;;;;;;;;5032951;28;20226;-85
2023/03/25 02:18:25;;;;;;;0.68;0.68;;;;;;;;;;5032758;28;20198;-83
2023/03/25 02:21:26;;;;;;;0.40;0.40;;;;;;;;;;5032599;28;20245;-83
2023/03/25 02:24:35;;;;;;;0.50;0.50;;;;;;;;;;5032728;28;20205;-83
2023/03/25 02:27:25;;;;;;;0.65;0.65;;;;;;;;;;5032925;28;20547;-85
2023/03/25 02:30:50;;;;;;;0.60;0.60;;;;;;;;;;5033088;28;20187;-84
2023/03/25 02:33:37;;;;;;;0.70;0.70;;;;;;;;;;5028557;28;20214;-83
2023/03/25 02:36:37;;;;;;;0.93;0.85;;;;;;;;;;5032312;28;20226;-83
2023/03/25 02:39:11;;;;;;;0.90;0.90;;;;;;;;;;5029210;28;20574;-84
2023/03/25 02:41:43;;;;;;;0.85;0.65;;;;;;;;;;5032583;28;20665;-83
2023/03/25 02:44:16;;;;;;;0.70;0.60;;;;;;;;;;5037058;28;20269;-84
2023/03/25 02:46:49;;;;;;;1.67;0.68;;;;;;;;;;5036533;28;20189;-84
2023/03/25 02:49:23;;;;;;;0.85;0.70;;;;;;;;;;5036389;28;20193;-83
2023/03/25 02:51:55;;;;;;;0.63;0.63;;;;;;;;;;5036588;28;20206;-84
2023/03/25 02:54:25;;;;;;;1.10;0.60;;;;;;;;;;5036016;28;20194;-83
2023/03/25 02:56:56;;;;;;;0.73;0.73;;;;;;;;;;5028889;28;20597;-84
2023/03/25 02:59:24;;;;;;;0.85;0.85;;;;;;;;;;5019286;28;20718;-83
2023/03/25 03:01:57;;;;;;;0.60;0.60;;;;;;;;;;5017917;28;20206;-84
2023/03/25 03:04:25;;;;;;;1.17;1.00;;;;;;;;;;5035624;28;20218;-84
2023/03/25 03:06:54;;;;;;;1.17;1.05;;;;;;;;;;5035920;28;20195;-83
2023/03/25 03:09:37;;;;;;;0.57;0.57;;;;;;;;;;5035712;28;20297;-83
2023/03/25 03:12:17;;;;;;;0.93;0.75;;;;;;;;;;5036087;28;20265;-83
2023/03/25 03:14:59;;;;;;;0.80;0.75;;;;;;;;;;5036218;28;20225;-85
2023/03/25 03:17:34;;;;;;;1.27;0.73;;;;;;;;;;5035149;28;20210;-82
2023/03/25 03:20:08;;;;;;;1.02;0.63;;;;;;;;;;5035247;28;20213;-84
2023/03/25 03:22:42;;;;;;;0.60;0.60;;;;;;;;;;5035105;28;20198;-83
2023/03/25 03:25:20;;;;;;;1.00;0.90;;;;;;;;;;5036139;28;20266;-83
2023/03/25 03:27:51;;;;;;;0.80;0.55;;;;;;;;;;5058099;22;20230;-82
2023/03/25 03:30:26;;;;;;;2.13;0.80;;;;;;;;;;5055073;28;20197;-82
2023/03/25 03:32:56;;;;;;;0.80;0.80;;;;;;;;;;5057881;28;20697;-83
2023/03/25 03:35:28;;;;;;;1.45;0.63;;;;;;;;;;5054967;28;20198;-82
2023/03/25 03:37:59;;;;;;;0.70;0.70;;;;;;;;;;5054462;28;20241;-82
2023/03/25 03:40:31;;;;;;;0.63;0.60;;;;;;;;;;5054409;28;20200;-81
2023/03/25 03:43:01;;;;;;;0.82;0.80;;;;;;;;;;5054986;28;20221;-82
2023/03/25 03:45:33;;;;;;;0.68;0.68;;;;;;;;;;5054824;28;20262;-82
2023/03/25 03:48:07;;;;;;;0.88;0.50;;;;;;;;;;5055325;28;20212;-83
2023/03/25 03:50:40;;;;;;;5.05;0.50;;;;;;;;;;5054711;28;20661;-83
2023/03/25 03:53:11;;;;;;;0.57;0.57;;;;;;;;;;5054641;28;20807;-83
2023/03/25 03:55:42;;;;;;;0.70;0.70;;;;;;;;;;5062389;28;20281;-82
2023/03/25 03:58:14;;;;;;;0.80;0.80;;;;;;;;;;5071477;28;20621;-82
2023/03/25 04:00:48;;;;;;;0.65;0.65;;;;;;;;;;5074734;28;20193;-82
2023/03/25 04:03:23;;;;;;;0.55;0.55;;;;;;;;;;5059966;28;20284;-83
2023/03/25 04:05:57;;;;;;;2.28;0.70;;;;;;;;;;5054413;28;20288;-81
2023/03/25 04:08:29;;;;;;;0.80;0.80;;;;;;;;;;5053727;28;20193;-82
2023/03/25 04:11:03;;;;;;;1.13;0.88;;;;;;;;;;5054462;28;20200;-82
2023/03/25 04:13:36;;;;;;;0.60;0.60;;;;;;;;;;5054276;28;20276;-81
2023/03/25 04:16:04;;;;;;;0.40;0.40;;;;;;;;;;5054412;28;20198;-82
2023/03/25 04:18:32;;;;;;;0.80;0.70;;;;;;;;;;5054029;28;20229;-82
2023/03/25 04:21:00;;;;;;;0.70;0.70;;;;;;;;;;5053667;28;20233;-82
2023/03/25 04:23:29;;;;;;;0.60;0.60;;;;;;;;;;5054090;28;20284;-81
2023/03/25 04:26:01;;;;;;;0.50;0.50;;;;;;;;;;5034150;28;20206;-81
2023/03/25 04:28:30;;;;;;;0.60;0.60;;;;;;;;;;5034683;28;20198;-83
2023/03/25 04:30:59;;;;;;;0.88;0.57;;;;;;;;;;5034514;28;20198;-82
2023/03/25 04:33:28;;;;;;;1.00;0.73;;;;;;;;;;5047960;28;20674;-83
2023/03/25 04:35:56;;;;;;;0.70;0.65;;;;;;;;;;5053134;28;20205;-82
2023/03/25 04:38:24;;;;;;;1.02;0.52;;;;;;;;;;5053113;28;20743;-82
2023/03/25 04:40:52;;;;;;;0.98;0.63;;;;;;;;;;5053024;28;20274;-82
2023/03/25 04:43:21;;;;;;;1.50;0.93;;;;;;;;;;5053734;28;20285;-82
2023/03/25 04:45:52;;;;;;;1.60;0.70;;;;;;;;;;5053761;28;20293;-81
2023/03/25 04:48:24;;;;;;;0.80;0.60;;;;;;;;;;5053927;28;20237;-83
2023/03/25 04:50:54;;;;;;;0.98;0.77;;;;;;;;;;5053807;28;20205;-82
2023/03/25 04:53:22;;;;;;;0.75;0.75;;;;;;;;;;5052979;28;20654;-81
2023/03/25 04:55:50;;;;;;;1.10;0.80;;;;;;;;;;5053439;28;20256;-83
2023/03/25 04:58:18;;;;;;;0.95;0.60;;;;;;;;;;5053488;28;20225;-82
2023/03/25 05:00:49;;;;;;;0.77;0.60;;;;;;;;;;5053236;28;20204;-82
2023/03/25 05:03:22;;;;;;;0.40;0.40;;;;;;;;;;5052213;28;20202;-82
2023/03/25 05:05:50;;;;;;;0.65;0.35;;;;;;;;;;5051442;28;20280;-82
2023/03/25 05:08:20;;;;;;;0.70;0.70;;;;;;;;;;5052747;28;20708;-83
2023/03/25 05:10:48;;;;;;;0.68;0.47;;;;;;;;;;5053072;28;20244;-83
2023/03/25 05:13:16;;;;;;;0.80;0.60;;;;;;;;;;5053462;28;20225;-84
2023/03/25 05:15:43;;;;;;;0.32;0.32;;;;;;;;;;5053164;28;20792;-83
2023/03/25 05:18:15;;;;;;;0.75;0.70;;;;;;;;;;5052832;28;20221;-82
2023/03/25 05:20:45;;;;;;;0.40;0.40;;;;;;;;;;5052835;28;20661;-82
2023/03/25 05:23:16;;;;;;;0.57;0.57;;;;;;;;;;5053035;28;20232;-83
2023/03/25 05:25:44;;;;;;;0.50;0.50;;;;;;;;;;5053121;28;20244;-83
2023/03/25 05:28:13;;;;;;;0.43;0.43;;;;;;;;;;5052801;28;20208;-82
2023/03/25 05:30:44;;;;;;;0.85;0.40;;;;;;;;;;5053073;28;20202;-82
2023/03/25 05:33:16;;;;;;;0.30;0.30;;;;;;;;;;5052975;28;20740;-82
2023/03/25 05:35:45;;;;;;;0.40;0.40;;;;;;;;;;5052544;28;20247;-81
2023/03/25 05:38:17;;;;;;;0.50;0.50;;;;;;;;;;5050338;28;20225;-81
2023/03/25 05:40:45;;;;;;;4.03;1.25;;;;;;;;;;5052767;28;20263;-85
2023/03/25 05:43:13;;;;;;;0.85;0.60;;;;;;;;;;5055244;28;20212;-84
2023/03/25 05:45:41;;;;;;;0.47;0.43;;;;;;;;;;5054499;28;20205;-85
2023/03/25 05:48:09;;;;;;;0.80;0.75;;;;;;;;;;5055266;28;20199;-84
2023/03/25 05:50:41;;;;;;;1.55;0.82;;;;;;;;;;5054580;28;20280;-85
2023/03/25 05:53:11;;;;;;;0.73;0.55;;;;;;;;;;5055424;28;20205;-84
2023/03/25 05:55:38;;;;;;;0.60;0.60;;;;;;;;;;5055164;28;20198;-85
2023/03/25 05:58:06;;;;;;;0.65;0.65;;;;;;;;;;5055258;28;20669;-86
2023/03/25 06:00:33;;;;;;;0.98;0.60;;;;;;;;;;5055374;28;20578;-87
2023/03/25 06:03:01;;;;;;;0.50;0.50;;;;;;;;;;5054503;28;20305;-86
2023/03/25 06:05:29;;;;;;;0.80;0.73;;;;;;;;;;5054204;28;20280;-86
2023/03/25 06:07:58;;;;;;;1.42;0.60;;;;;;;;;;5053448;28;20905;-84
2023/03/25 06:10:25;;;;;;;0.57;0.57;;;;;;;;;;5056617;28;20261;-85
2023/03/25 06:12:54;;;;;;;1.35;0.90;;;;;;;;;;5052562;28;20313;-85
2023/03/25 06:15:32;;;;;;;0.80;0.80;;;;;;;;;;5048157;28;20197;-82
2023/03/25 06:18:00;;;;;;;1.75;0.70;;;;;;;;;;5055729;28;20224;-83
2023/03/25 06:20:27;;;;;;;1.98;0.75;;;;;;;;;;5056906;28;20204;-83
2023/03/25 06:22:56;;;;;;;0.60;0.52;;;;;;;;;;5059140;28;20304;-83
2023/03/25 06:25:25;;;;;;;0.40;0.40;;;;;;;;;;5060688;28;20816;-83
2023/03/25 06:27:54;;;;;;;0.93;0.90;;;;;;;;;;5061589;28;20251;-85
2023/03/25 06:30:22;;;;;;;0.90;0.73;;;;;;;;;;5066925;28;20194;-85
2023/03/25 06:32:51;;;;;;;0.65;0.65;;;;;;;;;;5059744;28;20300;-85
2023/03/25 06:35:20;;;;;;;0.63;0.63;;;;;;;;;;5060273;28;20669;-86
2023/03/25 06:37:48;;;;;;;0.80;0.60;;;;;;;;;;5056255;28;20205;-83
2023/03/25 06:40:20;;;;;;;0.88;0.60;;;;;;;;;;5058497;28;20629;-84
2023/03/25 06:42:48;;;;;;;1.65;0.95;;;;;;;;;;5066050;28;20654;-85
2023/03/25 06:45:16;;;;;;;1.73;0.93;;;;;;;;;;5061381;28;20217;-85
2023/03/25 06:47:43;;;;;;;1.10;0.68;;;;;;;;;;5060606;28;20209;-83
2023/03/25 06:50:11;;;;;;;0.60;0.60;;;;;;;;;;5057381;28;20257;-84
2023/03/25 06:55:09;;;;;;;0.93;0.60;;;;;;;;;;5060724;22;20249;-82
2023/03/25 06:57:37;;;;;;;0.88;0.63;;;;;;;;;;5044429;28;20204;-81
2023/03/25 07:00:07;;;;;;;0.68;0.60;;;;;;;;;;5038194;28;20321;-80
2023/03/25 07:02:35;;;;;;;0.57;0.57;;;;;;;;;;5037073;28;20202;-80
2023/03/25 07:05:02;;;;;;;0.60;0.60;;;;;;;;;;5034616;28;20309;-80
2023/03/25 07:07:30;;;;;;;3.92;0.93;;;;;;;;;;5031101;28;20304;-80
2023/03/25 07:09:57;;;;;;;1.17;0.80;;;;;;;;;;5046888;28;20282;-82
2023/03/25 07:12:25;;;;;;;0.80;0.60;;;;;;;;;;5049697;28;20269;-82
2023/03/25 07:14:56;;;;;;;0.77;0.65;;;;;;;;;;5052967;28;20321;-82
2023/03/25 07:17:24;;;;;;;0.65;0.65;;;;;;;;;;5044757;28;20648;-82
2023/03/25 07:19:51;;;;;;;0.52;0.52;;;;;;;;;;5042689;28;20218;-81
2023/03/25 07:22:19;;;;;;;1.17;0.60;;;;;;;;;;5050660;28;20310;-81
2023/03/25 07:24:47;;;;;;;0.50;0.50;;;;;;;;;;5034570;28;20214;-81
2023/03/25 07:27:15;;;;;;;0.70;0.50;;;;;;;;;;5046967;28;20277;-81
2023/03/25 07:29:43;;;;;;;0.60;0.60;;;;;;;;;;5034274;28;20198;-82
2023/03/25 07:32:12;;;;;;;0.63;0.60;;;;;;;;;;5047957;28;20297;-81
2023/03/25 07:34:39;;;;;;;0.77;0.77;;;;;;;;;;5049091;28;20225;-81
2023/03/25 07:37:08;;;;;;;1.00;0.65;;;;;;;;;;5041669;28;20201;-80
2023/03/25 07:39:35;;;;;;;3.30;0.95;;;;;;;;;;5029145;28;20252;-81
2023/03/25 07:42:02;;;;;;;0.88;0.73;;;;;;;;;;5045167;28;20208;-81
2023/03/25 07:44:30;;;;;;;0.68;0.68;;;;;;;;;;5046919;28;20225;-81
2023/03/25 07:46:57;;;;;;;2.75;0.95;;;;;;;;;;5041815;28;20194;-81
2023/03/25 07:49:26;;;;;;;0.60;0.60;;;;;;;;;;5056390;28;20649;-80
2023/03/25 07:51:54;;;;;;;0.80;0.80;;;;;;;;;;5036759;28;20726;-81
2023/03/25 07:54:23;;;;;;;0.98;0.88;;;;;;;;;;5037884;28;20319;-80
2023/03/25 07:56:51;;;;;;;0.60;0.60;;;;;;;;;;5045327;28;20648;-81
2023/03/25 07:59:19;;;;;;;1.05;0.63;;;;;;;;;;5035767;28;20702;-81
2023/03/25 08:01:46;;;;;;;1.52;0.80;;;;;;;;;;5035838;28;20198;-81
2023/03/25 08:04:14;;;;;;;1.75;0.68;;;;;;;;;;5036296;28;20305;-80
2023/03/25 08:06:42;;;;;;;0.70;0.70;;;;;;;;;;5019163;28;20874;-81
2023/03/25 08:09:10;;;;;;;1.00;0.73;;;;;;;;;;5035976;28;20573;-81
2023/03/25 08:11:37;;;;;;;1.20;0.70;;;;;;;;;;5036731;28;20260;-80
2023/03/25 08:14:05;;;;;;;1.27;0.77;;;;;;;;;;5036134;28;20321;-81
2023/03/25 08:16:33;;;;;;;0.82;0.82;;;;;;;;;;5034064;28;20205;-81
2023/03/25 08:19:00;;;;;;;0.50;0.50;;;;;;;;;;5030916;28;20238;-81
2023/03/25 08:21:28;;;;;;;0.47;0.47;;;;;;;;;;5036747;28;20226;-80
2023/03/25 08:24:01;;;;;;;0.40;0.40;;;;;;;;;;5035723;28;20219;-80
2023/03/25 08:26:30;;;;;;;1.00;0.77;;;;;;;;;;5034552;28;20289;-81
2023/03/25 08:28:58;;;;;;;2.95;0.80;;;;;;;;;;5036360;28;20277;-81
2023/03/25 08:31:29;;;;;;;0.95;0.80;;;;;;;;;;5036792;28;20209;-81
2023/03/25 08:33:57;;;;;;;0.70;0.70;;;;;;;;;;5036141;28;20303;-81
2023/03/25 08:36:24;;;;;;;0.77;0.73;;;;;;;;;;5033746;28;20289;-81
2023/03/25 08:38:52;;;;;;;0.52;0.52;;;;;;;;;;5035293;28;20465;-81
2023/03/25 08:41:21;;;;;;;0.80;0.80;;;;;;;;;;5035702;28;20754;-81
2023/03/25 08:43:49;;;;;;;1.55;0.73;;;;;;;;;;5036862;28;20309;-81
2023/03/25 08:46:17;;;;;;;1.48;0.70;;;;;;;;;;5036073;28;20206;-81
2023/03/25 08:48:44;;;;;;;1.10;0.80;;;;;;;;;;5035484;28;20202;-80
2023/03/25 08:51:12;;;;;;;1.73;0.80;;;;;;;;;;5034323;28;20780;-81
2023/03/25 08:53:39;;;;;;;1.17;0.70;;;;;;;;;;5036286;28;20291;-81
2023/03/25 08:56:09;;;;;;;2.13;0.63;;;;;;;;;;5035962;28;20202;-80
2023/03/25 08:58:38;;;;;;;2.15;0.65;;;;;;;;;;5035851;28;20221;-81
2023/03/25 09:01:06;;;;;;;1.90;0.80;;;;;;;;;;5036148;28;20647;-80
2023/03/25 09:03:36;;;;;;;0.82;0.80;;;;;;;;;;5034420;28;20218;-81
2023/03/25 09:06:05;;;;;;;1.17;0.82;;;;;;;;;;5033356;28;20289;-81
2023/03/25 09:08:33;;;;;;;2.33;0.93;;;;;;;;;;5026466;28;20218;-80
2023/03/25 09:11:00;;;;;;;1.92;1.05;;;;;;;;;;5034765;28;20229;-81
2023/03/25 09:13:28;;;;;;;0.57;0.57;;;;;;;;;;5035452;28;20226;-81
2023/03/25 09:15:58;;;;;;;1.67;0.70;;;;;;;;;;5033597;28;20204;-81
2023/03/25 09:18:25;;;;;;;1.13;0.60;;;;;;;;;;5034695;28;20198;-79
2023/03/25 09:20:57;;;;;;;0.63;0.63;;;;;;;;;;5033094;28;20239;-81
2023/03/25 09:23:25;;;;;;;2.42;0.80;;;;;;;;;;5034833;28;20224;-80
2023/03/25 09:25:52;;;;;;;1.65;0.70;;;;;;;;;;5034529;28;20285;-80
2023/03/25 09:28:20;;;;;;;1.05;0.80;;;;;;;;;;5033367;28;20293;-81
2023/03/25 09:30:47;;;;;;;0.95;0.95;;;;;;;;;;5033467;28;20681;-81
2023/03/25 09:33:18;;;;;;;1.60;0.80;;;;;;;;;;5034226;28;20229;-81
2023/03/25 09:35:46;;;;;;;1.58;0.90;;;;;;;;;;5033179;28;20195;-80
2023/03/25 09:38:13;;;;;;;1.70;1.27;;;;;;;;;;5033337;28;20198;-81
2023/03/25 09:40:42;;;;;;;1.33;0.70;;;;;;;;;;5033521;28;20289;-81
2023/03/25 09:43:37;;;;;;;0.88;0.63;;;;;;;;;;5033296;28;20228;-81
2023/03/25 09:46:05;;;;;;;2.08;0.93;;;;;;;;;;5032130;28;20205;-81
2023/03/25 09:48:38;;;;;;;0.40;0.40;;;;;;;;;;5032355;28;20289;-81
2023/03/25 09:51:11;;;;;;;0.60;0.60;;;;;;;;;;5032090;28;20722;-80
2023/03/25 09:53:43;;;;;;;0.60;0.60;;;;;;;;;;5032715;28;20585;-80
2023/03/25 09:56:15;;;;;;;0.50;0.50;;;;;;;;;;5041643;28;20205;-80
2023/03/25 09:58:44;;;;;;;0.63;0.43;;;;;;;;;;5053794;28;20204;-82
2023/03/25 10:01:26;;;;;;;0.60;0.60;;;;;;;;;;5037560;28;20221;-79
2023/03/25 10:04:19;;;;;;;1.05;0.70;;;;;;;;;;5032308;28;20609;-80
2023/03/25 10:06:53;;;;;;;1.58;0.80;;;;;;;;;;5032969;28;20575;-80
2023/03/25 10:09:45;;;;;;;1.67;0.70;;;;;;;;;;5033782;28;20199;-80
2023/03/25 10:12:32;;;;;;;2.38;1.15;;;;;;;;;;5029048;28;20245;-80
2023/03/25 10:15:21;;;;;;;0.70;0.60;;;;;;;;;;5032894;28;20232;-82
2023/03/25 10:18:03;;;;;;;0.88;0.65;;;;;;;;;;5023948;28;20650;-80
2023/03/25 10:20:44;;;;;;;0.55;0.55;;;;;;;;;;5033066;28;20716;-80
2023/03/25 10:23:22;;;;;;;1.55;1.27;;;;;;;;;;5032381;28;20229;-81
2023/03/25 10:25:55;;;;;;;0.93;0.93;;;;;;;;;;5033170;28;20205;-81
2023/03/25 10:28:30;;;;;;;0.68;0.65;;;;;;;;;;5033683;28;20210;-81
2023/03/25 10:30:58;;;;;;;1.23;0.70;;;;;;;;;;5032087;28;20197;-81
2023/03/25 10:33:35;;;;;;;1.38;0.70;;;;;;;;;;5033332;28;20280;-81
2023/03/25 10:36:05;;;;;;;2.33;1.30;;;;;;;;;;5034019;28;20391;-81
2023/03/25 10:38:34;;;;;;;0.40;0.40;;;;;;;;;;5031679;28;20206;-80
2023/03/25 10:41:15;;;;;;;1.95;1.67;;;;;;;;;;5032883;28;20233;-81
2023/03/25 10:43:43;;;;;;;0.60;0.50;;;;;;;;;;5026314;28;20214;-81
2023/03/25 10:46:17;;;;;;;0.60;0.60;;;;;;;;;;5032654;28;20289;-81
2023/03/25 10:48:45;;;;;;;1.48;0.75;;;;;;;;;;5028691;28;20195;-81
2023/03/25 10:51:15;;;;;;;1.13;0.60;;;;;;;;;;5030789;28;20204;-81
2023/03/25 10:53:46;;;;;;;1.38;0.90;;;;;;;;;;5024494;28;20233;-80
2023/03/25 10:56:17;;;;;;;0.75;0.75;;;;;;;;;;5032972;28;20205;-81
2023/03/25 10:58:47;;;;;;;1.75;0.98;;;;;;;;;;5033325;28;20674;-81
2023/03/25 11:01:17;;;;;;;1.58;0.60;;;;;;;;;;5032198;28;20786;-81
2023/03/25 11:03:49;;;;;;;1.65;1.23;;;;;;;;;;5032928;28;20219;-81
2023/03/25 11:06:25;;;;;;;0.98;0.73;;;;;;;;;;5036051;28;20236;-81
2023/03/25 11:09:19;;;;;;;1.10;0.80;;;;;;;;;;5036531;28;20284;-82
2023/03/25 11:11:47;;;;;;;0.55;0.55;;;;;;;;;;5016532;28;20195;-81
2023/03/25 11:14:15;;;;;;;1.02;0.68;;;;;;;;;;5016957;28;20235;-82
2023/03/25 11:16:46;;;;;;;1.02;0.65;;;;;;;;;;5024254;28;20289;-82
2023/03/25 11:19:20;;;;;;;1.40;0.90;;;;;;;;;;5035789;28;20206;-81
2023/03/25 11:21:53;;;;;;;5.53;3.53;;;;;;;;;;5034482;28;20382;-81
2023/03/25 11:24:21;;;;;;;1.60;1.20;;;;;;;;;;5036689;28;20232;-82
2023/03/25 11:26:51;;;;;;;2.03;1.17;;;;;;;;;;5035599;28;20281;-82
2023/03/25 11:29:21;;;;;;;1.70;1.20;;;;;;;;;;5036284;28;20689;-82
2023/03/25 11:31:59;;;;;;;1.42;0.88;;;;;;;;;;5035831;28;20545;-82
2023/03/25 11:34:27;;;;;;;1.65;1.00;;;;;;;;;;5036467;28;20765;-82
2023/03/25 11:37:03;;;;;;;0.95;0.80;;;;;;;;;;5034342;28;20206;-81
2023/03/25 11:39:35;;;;;;;1.63;1.00;;;;;;;;;;5037077;28;20201;-81
2023/03/25 11:42:21;;;;;;;2.30;0.85;;;;;;;;;;5036482;28;20320;-82
2023/03/25 11:44:51;;;;;;;2.50;1.05;;;;;;;;;;5017381;28;20219;-81
2023/03/25 11:47:31;;;;;;;2.22;1.15;;;;;;;;;;5029877;28;20199;-81
2023/03/25 11:49:59;;;;;;;2.08;0.90;;;;;;;;;;5036112;28;20206;-81
2023/03/25 11:52:32;;;;;;;1.67;0.60;;;;;;;;;;5035094;28;20202;-82
2023/03/25 11:55:01;;;;;;;1.05;0.77;;;;;;;;;;5036759;28;20265;-82
2023/03/25 11:57:35;;;;;;;1.40;1.00;;;;;;;;;;5034490;28;20209;-81
2023/03/25 12:00:11;;;;;;;0.57;0.57;;;;;;;;;;5034314;28;20310;-82
2023/03/25 12:02:40;;;;;;;1.80;1.10;;;;;;;;;;5017700;28;20250;-82
2023/03/25 12:05:15;;;;;;;1.13;1.02;;;;;;;;;;5034078;28;20229;-81
2023/03/25 12:07:47;;;;;;;0.85;0.85;;;;;;;;;;5029619;28;20197;-80
2023/03/25 12:10:20;;;;;;;1.23;0.82;;;;;;;;;;5037220;28;20205;-82
2023/03/25 12:12:57;;;;;;;1.42;0.90;;;;;;;;;;5036447;28;20194;-81
2023/03/25 12:15:34;;;;;;;2.25;0.90;;;;;;;;;;5035528;28;20684;-82
2023/03/25 12:18:17;;;;;;;1.13;0.95;;;;;;;;;;5035393;28;20220;-81
2023/03/25 12:20:56;;;;;;;0.93;0.90;;;;;;;;;;5030255;28;20194;-82
2023/03/25 12:23:36;;;;;;;2.25;1.60;;;;;;;;;;5035376;28;20229;-82
2023/03/25 12:26:10;;;;;;;2.15;0.80;;;;;;;;;;5032030;28;20230;-81
2023/03/25 12:28:59;;;;;;;2.45;1.17;;;;;;;;;;5030691;28;20206;-82
2023/03/25 12:31:38;;;;;;;1.67;0.80;;;;;;;;;;5035603;28;20198;-81
2023/03/25 12:34:14;;;;;;;1.38;1.27;;;;;;;;;;5035021;28;20305;-81
2023/03/25 12:36:53;;;;;;;2.17;1.10;;;;;;;;;;5035308;28;20198;-81
2023/03/25 12:39:42;;;;;;;2.45;0.90;;;;;;;;;;5034431;28;20209;-82
2023/03/25 12:42:23;;;;;;;1.38;1.00;;;;;;;;;;5035400;28;20226;-80
2023/03/25 12:45:06;;;;;;;3.03;1.10;;;;;;;;;;5030511;28;20282;-81
2023/03/25 12:47:37;;;;;;;2.08;1.20;;;;;;;;;;5022314;28;20206;-81
2023/03/25 12:50:37;;;;;;;1.02;0.90;;;;;;;;;;5035709;28;20296;-81
2023/03/25 12:55:49;;;;;;;1.20;0.70;;;;;;;;;;5095082;28;20332;-85
2023/03/25 12:58:54;;;;;;;1.52;1.40;;;;;;;;;;5089209;28;20262;-85
2023/03/25 13:01:30;;;;;;;2.00;1.88;;;;;;;;;;5088764;28;20589;-83
2023/03/25 13:04:16;;;;;;;2.40;1.00;;;;;;;;;;5096727;28;20212;-85
2023/03/25 13:06:49;;;;;;;1.70;0.90;;;;;;;;;;5096172;28;20196;-85
2023/03/25 13:09:21;;;;;;;1.25;0.82;;;;;;;;;;5087133;28;20193;-85
2023/03/25 13:11:51;;;;;;;1.75;0.88;;;;;;;;;;5091467;28;20220;-84
2023/03/25 13:14:23;;;;;;;1.65;1.13;;;;;;;;;;5101055;28;20760;-85
2023/03/25 13:16:53;;;;;;;1.75;1.45;;;;;;;;;;5098699;28;20200;-85
2023/03/25 13:19:22;;;;;;;1.42;1.05;;;;;;;;;;5096317;28;20267;-84
2023/03/25 13:21:52;;;;;;;3.35;0.90;;;;;;;;;;5098616;28;20208;-84
2023/03/25 13:24:23;;;;;;;2.30;1.25;;;;;;;;;;5090221;28;20251;-84
2023/03/25 13:26:54;;;;;;;0.70;0.70;;;;;;;;;;5080887;28;20284;-84
2023/03/25 13:29:27;;;;;;;0.95;0.70;;;;;;;;;;5084091;28;20193;-84
2023/03/25 13:31:58;;;;;;;2.25;0.90;;;;;;;;;;5090812;28;20259;-85
2023/03/25 13:34:32;;;;;;;0.68;0.68;;;;;;;;;;5094918;28;20277;-85
2023/03/25 13:37:12;;;;;;;0.60;0.60;;;;;;;;;;5087624;28;20892;-84
2023/03/25 13:39:55;;;;;;;1.40;0.65;;;;;;;;;;5093356;28;20188;-84
2023/03/25 13:42:28;;;;;;;2.13;1.00;;;;;;;;;;5096649;28;20220;-84
2023/03/25 13:44:57;;;;;;;0.70;0.70;;;;;;;;;;5096443;28;20710;-85
2023/03/25 13:47:29;;;;;;;0.88;0.65;;;;;;;;;;5093043;28;20653;-85
2023/03/25 13:50:01;;;;;;;1.20;1.10;;;;;;;;;;5090296;28;20268;-85
2023/03/25 13:52:35;;;;;;;4.38;1.05;;;;;;;;;;5095212;28;20188;-83
2023/03/25 13:55:08;;;;;;;1.20;0.68;;;;;;;;;;5087903;28;20232;-85
2023/03/25 13:58:07;;;;;;;2.42;0.80;;;;;;;;;;5080034;28;20203;-85
2023/03/25 14:01:07;;;;;;;0.90;0.65;;;;;;;;;;5082557;28;20196;-83
2023/03/25 14:04:22;;;;;;;1.05;0.60;;;;;;;;;;5081270;28;20220;-85
2023/03/25 14:07:31;;;;;;;0.88;0.65;;;;;;;;;;5013877;28;20278;-84
2023/03/25 14:10:30;;;;;;;1.05;0.95;;;;;;;;;;5083834;28;20283;-85
2023/03/25 14:13:02;;;;;;;0.75;0.70;;;;;;;;;;5072698;28;20192;-84
2023/03/25 14:15:32;;;;;;;7.40;2.00;;;;;;;;;;5077380;28;20307;-83
2023/03/25 14:18:01;;;;;;;1.52;0.93;;;;;;;;;;5078996;28;20304;-83
2023/03/25 14:20:33;;;;;;;1.23;0.85;;;;;;;;;;5091798;28;20196;-84
2023/03/25 14:23:05;;;;;;;0.50;0.50;;;;;;;;;;5097913;28;20680;-84
2023/03/25 14:25:38;;;;;;;1.75;0.85;;;;;;;;;;5091263;28;20196;-85
2023/03/25 14:28:08;;;;;;;0.65;0.65;;;;;;;;;;5096855;28;20196;-84
2023/03/25 14:30:36;;;;;;;1.13;0.70;;;;;;;;;;5096477;28;20204;-85
2023/03/25 14:33:04;;;;;;;1.20;1.10;;;;;;;;;;5095557;28;20199;-85
2023/03/25 14:35:50;;;;;;;0.73;0.70;;;;;;;;;;5093665;28;20196;-85
2023/03/25 14:38:53;;;;;;;1.58;0.90;;;;;;;;;;5086668;28;20279;-84
2023/03/25 14:41:57;;;;;;;1.23;0.63;;;;;;;;;;5100027;28;20574;-84
2023/03/25 14:44:31;;;;;;;2.50;1.00;;;;;;;;;;5100881;28;20226;-84
2023/03/25 14:47:21;;;;;;;1.50;0.90;;;;;;;;;;5095607;28;20206;-84
2023/03/25 14:49:53;;;;;;;2.03;1.15;;;;;;;;;;5095020;28;20244;-83
2023/03/25 14:52:27;;;;;;;1.02;0.82;;;;;;;;;;5098893;28;20569;-83
2023/03/25 14:54:55;;;;;;;1.38;1.00;;;;;;;;;;5091562;28;20228;-83
2023/03/25 14:57:25;;;;;;;1.17;0.98;;;;;;;;;;5097740;28;20214;-84
2023/03/25 14:59:58;;;;;;;2.28;1.48;;;;;;;;;;5097520;28;20201;-85
2023/03/25 15:02:29;;;;;;;1.25;1.13;;;;;;;;;;5097260;28;20192;-84
2023/03/25 15:05:01;;;;;;;2.80;1.13;;;;;;;;;;5100454;28;20680;-84
2023/03/25 15:07:44;;;;;;;0.98;0.80;;;;;;;;;;5099611;28;20266;-86
2023/03/25 15:10:24;;;;;;;0.95;0.90;;;;;;;;;;5100182;28;20283;-85
2023/03/25 15:12:56;;;;;;;1.73;0.93;;;;;;;;;;5098856;28;20200;-85
2023/03/25 15:15:32;;;;;;;2.88;2.03;;;;;;;;;;5097197;28;20224;-85
2023/03/25 15:18:00;;;;;;;3.50;1.10;;;;;;;;;;5096056;28;20196;-84
2023/03/25 15:20:36;;;;;;;2.03;0.90;;;;;;;;;;5094964;28;20200;-86
2023/03/25 15:23:40;;;;;;;1.65;0.90;;;;;;;;;;5097901;28;20257;-84
2023/03/25 15:26:13;;;;;;;2.13;1.25;;;;;;;;;;5094828;28;20688;-85
2023/03/25 15:29:31;;;;;;;1.42;0.70;;;;;;;;;;5090028;28;20575;-87
2023/03/25 15:32:26;;;;;;;2.25;0.80;;;;;;;;;;5082247;28;20205;-83
2023/03/25 15:35:32;;;;;;;2.33;0.85;;;;;;;;;;5095213;28;20212;-84
2023/03/25 15:38:23;;;;;;;1.05;1.00;;;;;;;;;;5091721;28;20204;-84